sensor_id;sensor_type;location;lat;lon;timestamp;P1;durP1;ratioP1;P2;durP2;ratioP2
31680;SDS011;18281;51.364;9.566;2024-02-21T00:01:58;11.93;;;3.55;;
31680;SDS011;18281;51.364;9.566;2024-02-21T00:04:23;13.43;;;4.20;;
31680;SDS011;18281;51.364;9.566;2024-02-21T00:06:48;14.70;;;3.38;;
31680;SDS011;18281;51.364;9.566;2024-02-21T00:09:14;16.63;;;4.43;;
31680;SDS011;18281;51.364;9.566;2024-02-21T00:11:39;11.73;;;4.43;;
31680;SDS011;18281;51.364;9.566;2024-02-21T00:14:04;17.83;;;3.55;;
31680;SDS011;18281;51.364;9.566;2024-02-21T00:16:30;11.85;;;3.33;;
31680;SDS011;18281;51.364;9.566;2024-02-21T00:18:55;13.48;;;3.38;;
31680;SDS011;18281;51.364;9.566;2024-02-21T00:21:21;10.77;;;3.88;;
31680;SDS011;18281;51.364;9.566;2024-02-21T00:23:47;8.93;;;3.05;;
31680;SDS011;18281;51.364;9.566;2024-02-21T00:26:12;10.88;;;3.60;;
31680;SDS011;18281;51.364;9.566;2024-02-21T00:28:41;12.82;;;3.28;;
31680;SDS011;18281;51.364;9.566;2024-02-21T00:31:06;19.17;;;3.83;;
31680;SDS011;18281;51.364;9.566;2024-02-21T00:33:32;11.20;;;3.50;;
31680;SDS011;18281;51.364;9.566;2024-02-21T00:35:57;14.57;;;3.55;;
31680;SDS011;18281;51.364;9.566;2024-02-21T00:38:22;10.35;;;3.78;;
31680;SDS011;18281;51.364;9.566;2024-02-21T00:40:48;17.42;;;4.32;;
31680;SDS011;18281;51.364;9.566;2024-02-21T00:43:13;11.88;;;3.28;;
31680;SDS011;18281;51.364;9.566;2024-02-21T00:45:39;16.00;;;3.83;;
31680;SDS011;18281;51.364;9.566;2024-02-21T00:48:04;15.68;;;3.80;;
31680;SDS011;18281;51.364;9.566;2024-02-21T00:50:30;10.23;;;3.50;;
31680;SDS011;18281;51.364;9.566;2024-02-21T00:52:55;14.68;;;3.65;;
31680;SDS011;18281;51.364;9.566;2024-02-21T00:55:20;12.55;;;3.90;;
31680;SDS011;18281;51.364;9.566;2024-02-21T00:57:46;13.70;;;3.42;;
31680;SDS011;18281;51.364;9.566;2024-02-21T01:00:11;12.45;;;4.70;;
31680;SDS011;18281;51.364;9.566;2024-02-21T01:02:37;13.63;;;4.18;;
31680;SDS011;18281;51.364;9.566;2024-02-21T01:05:03;11.68;;;3.60;;
31680;SDS011;18281;51.364;9.566;2024-02-21T01:07:28;10.77;;;3.33;;
31680;SDS011;18281;51.364;9.566;2024-02-21T01:09:53;11.93;;;4.00;;
31680;SDS011;18281;51.364;9.566;2024-02-21T01:12:19;8.25;;;3.20;;
31680;SDS011;18281;51.364;9.566;2024-02-21T01:14:44;16.52;;;3.80;;
31680;SDS011;18281;51.364;9.566;2024-02-21T01:17:11;9.55;;;2.97;;
31680;SDS011;18281;51.364;9.566;2024-02-21T01:19:36;15.18;;;3.28;;
31680;SDS011;18281;51.364;9.566;2024-02-21T01:22:02;14.02;;;3.60;;
31680;SDS011;18281;51.364;9.566;2024-02-21T01:24:27;11.20;;;2.92;;
31680;SDS011;18281;51.364;9.566;2024-02-21T01:26:53;15.05;;;3.40;;
31680;SDS011;18281;51.364;9.566;2024-02-21T01:29:18;14.32;;;3.00;;
31680;SDS011;18281;51.364;9.566;2024-02-21T01:31:44;14.40;;;3.28;;
31680;SDS011;18281;51.364;9.566;2024-02-21T01:34:09;13.95;;;3.10;;
31680;SDS011;18281;51.364;9.566;2024-02-21T01:36:34;11.25;;;3.10;;
31680;SDS011;18281;51.364;9.566;2024-02-21T01:39:00;18.15;;;3.60;;
31680;SDS011;18281;51.364;9.566;2024-02-21T01:41:25;12.07;;;3.47;;
31680;SDS011;18281;51.364;9.566;2024-02-21T01:43:50;11.77;;;3.72;;
31680;SDS011;18281;51.364;9.566;2024-02-21T01:46:16;10.63;;;3.20;;
31680;SDS011;18281;51.364;9.566;2024-02-21T01:48:42;14.10;;;3.13;;
31680;SDS011;18281;51.364;9.566;2024-02-21T01:51:07;8.93;;;3.33;;
31680;SDS011;18281;51.364;9.566;2024-02-21T01:53:34;11.63;;;2.58;;
31680;SDS011;18281;51.364;9.566;2024-02-21T01:58:30;13.27;;;3.63;;
31680;SDS011;18281;51.364;9.566;2024-02-21T02:00:57;10.98;;;2.85;;
31680;SDS011;18281;51.364;9.566;2024-02-21T02:03:23;11.18;;;3.38;;
31680;SDS011;18281;51.364;9.566;2024-02-21T02:05:49;19.85;;;3.55;;
31680;SDS011;18281;51.364;9.566;2024-02-21T02:08:16;9.13;;;3.53;;
31680;SDS011;18281;51.364;9.566;2024-02-21T02:10:43;8.80;;;2.97;;
31680;SDS011;18281;51.364;9.566;2024-02-21T02:13:09;11.77;;;3.28;;
31680;SDS011;18281;51.364;9.566;2024-02-21T02:15:53;13.82;;;3.78;;
31680;SDS011;18281;51.364;9.566;2024-02-21T02:18:19;15.50;;;4.32;;
31680;SDS011;18281;51.364;9.566;2024-02-21T02:20:45;10.70;;;3.63;;
31680;SDS011;18281;51.364;9.566;2024-02-21T02:23:11;14.40;;;3.60;;
31680;SDS011;18281;51.364;9.566;2024-02-21T02:25:39;13.13;;;3.83;;
31680;SDS011;18281;51.364;9.566;2024-02-21T02:28:08;9.95;;;3.17;;
31680;SDS011;18281;51.364;9.566;2024-02-21T02:30:36;11.82;;;3.65;;
31680;SDS011;18281;51.364;9.566;2024-02-21T02:33:05;10.52;;;3.45;;
31680;SDS011;18281;51.364;9.566;2024-02-21T02:35:31;12.60;;;3.95;;
31680;SDS011;18281;51.364;9.566;2024-02-21T02:37:57;14.60;;;3.33;;
31680;SDS011;18281;51.364;9.566;2024-02-21T02:40:23;12.23;;;3.78;;
31680;SDS011;18281;51.364;9.566;2024-02-21T02:42:48;11.70;;;3.55;;
31680;SDS011;18281;51.364;9.566;2024-02-21T02:45:15;13.48;;;3.67;;
31680;SDS011;18281;51.364;9.566;2024-02-21T02:47:40;12.82;;;3.65;;
31680;SDS011;18281;51.364;9.566;2024-02-21T02:50:06;14.68;;;3.75;;
31680;SDS011;18281;51.364;9.566;2024-02-21T02:52:32;9.27;;;3.22;;
31680;SDS011;18281;51.364;9.566;2024-02-21T02:54:58;16.00;;;4.65;;
31680;SDS011;18281;51.364;9.566;2024-02-21T02:57:23;11.77;;;4.05;;
31680;SDS011;18281;51.364;9.566;2024-02-21T02:59:49;12.70;;;4.40;;
31680;SDS011;18281;51.364;9.566;2024-02-21T03:02:15;9.45;;;3.33;;
31680;SDS011;18281;51.364;9.566;2024-02-21T03:04:41;11.00;;;4.18;;
31680;SDS011;18281;51.364;9.566;2024-02-21T03:07:06;13.82;;;3.70;;
31680;SDS011;18281;51.364;9.566;2024-02-21T03:09:32;11.95;;;4.30;;
31680;SDS011;18281;51.364;9.566;2024-02-21T03:11:57;13.57;;;3.97;;
31680;SDS011;18281;51.364;9.566;2024-02-21T03:14:27;13.40;;;4.10;;
31680;SDS011;18281;51.364;9.566;2024-02-21T03:16:53;15.90;;;3.97;;
31680;SDS011;18281;51.364;9.566;2024-02-21T03:19:19;9.30;;;4.28;;
31680;SDS011;18281;51.364;9.566;2024-02-21T03:21:44;10.20;;;4.18;;
31680;SDS011;18281;51.364;9.566;2024-02-21T03:24:09;16.67;;;4.07;;
31680;SDS011;18281;51.364;9.566;2024-02-21T03:26:35;14.15;;;4.00;;
31680;SDS011;18281;51.364;9.566;2024-02-21T03:29:00;10.60;;;3.22;;
31680;SDS011;18281;51.364;9.566;2024-02-21T03:31:26;15.95;;;4.30;;
31680;SDS011;18281;51.364;9.566;2024-02-21T03:33:51;14.10;;;4.38;;
31680;SDS011;18281;51.364;9.566;2024-02-21T03:36:16;14.55;;;4.28;;
31680;SDS011;18281;51.364;9.566;2024-02-21T03:38:42;13.88;;;3.70;;
31680;SDS011;18281;51.364;9.566;2024-02-21T03:41:07;15.60;;;4.15;;
31680;SDS011;18281;51.364;9.566;2024-02-21T03:43:33;10.70;;;4.60;;
31680;SDS011;18281;51.364;9.566;2024-02-21T03:45:58;10.30;;;3.58;;
31680;SDS011;18281;51.364;9.566;2024-02-21T03:48:24;15.52;;;4.30;;
31680;SDS011;18281;51.364;9.566;2024-02-21T03:50:49;13.23;;;4.45;;
31680;SDS011;18281;51.364;9.566;2024-02-21T03:53:15;15.40;;;5.35;;
31680;SDS011;18281;51.364;9.566;2024-02-21T03:55:40;10.65;;;4.00;;
31680;SDS011;18281;51.364;9.566;2024-02-21T03:58:06;12.85;;;4.72;;
31680;SDS011;18281;51.364;9.566;2024-02-21T04:00:31;16.27;;;4.30;;
31680;SDS011;18281;51.364;9.566;2024-02-21T04:02:56;13.80;;;4.22;;
31680;SDS011;18281;51.364;9.566;2024-02-21T04:05:22;9.63;;;4.10;;
31680;SDS011;18281;51.364;9.566;2024-02-21T04:07:47;19.13;;;4.95;;
31680;SDS011;18281;51.364;9.566;2024-02-21T04:10:12;13.73;;;4.50;;
31680;SDS011;18281;51.364;9.566;2024-02-21T04:12:38;12.35;;;4.53;;
31680;SDS011;18281;51.364;9.566;2024-02-21T04:15:04;14.80;;;5.43;;
31680;SDS011;18281;51.364;9.566;2024-02-21T04:17:29;12.55;;;5.18;;
31680;SDS011;18281;51.364;9.566;2024-02-21T04:20:01;11.40;;;4.72;;
31680;SDS011;18281;51.364;9.566;2024-02-21T04:22:30;17.25;;;4.90;;
31680;SDS011;18281;51.364;9.566;2024-02-21T04:25:02;24.42;;;5.28;;
31680;SDS011;18281;51.364;9.566;2024-02-21T04:27:27;15.40;;;4.57;;
31680;SDS011;18281;51.364;9.566;2024-02-21T04:29:52;11.93;;;5.15;;
31680;SDS011;18281;51.364;9.566;2024-02-21T04:32:18;13.38;;;4.32;;
31680;SDS011;18281;51.364;9.566;2024-02-21T04:34:43;12.27;;;5.18;;
31680;SDS011;18281;51.364;9.566;2024-02-21T04:37:09;15.00;;;4.55;;
31680;SDS011;18281;51.364;9.566;2024-02-21T04:39:34;13.65;;;4.88;;
31680;SDS011;18281;51.364;9.566;2024-02-21T04:42:00;11.98;;;4.65;;
31680;SDS011;18281;51.364;9.566;2024-02-21T04:44:25;17.65;;;5.38;;
31680;SDS011;18281;51.364;9.566;2024-02-21T04:46:50;14.90;;;5.20;;
31680;SDS011;18281;51.364;9.566;2024-02-21T04:49:16;16.40;;;4.60;;
31680;SDS011;18281;51.364;9.566;2024-02-21T04:51:41;12.00;;;4.70;;
31680;SDS011;18281;51.364;9.566;2024-02-21T04:54:07;15.98;;;6.07;;
31680;SDS011;18281;51.364;9.566;2024-02-21T04:56:32;17.55;;;5.43;;
31680;SDS011;18281;51.364;9.566;2024-02-21T04:58:57;15.45;;;5.40;;
31680;SDS011;18281;51.364;9.566;2024-02-21T05:01:23;14.63;;;5.20;;
31680;SDS011;18281;51.364;9.566;2024-02-21T05:03:48;14.23;;;5.68;;
31680;SDS011;18281;51.364;9.566;2024-02-21T05:06:14;13.43;;;5.43;;
31680;SDS011;18281;51.364;9.566;2024-02-21T05:08:40;13.77;;;5.22;;
31680;SDS011;18281;51.364;9.566;2024-02-21T05:11:08;14.88;;;5.90;;
31680;SDS011;18281;51.364;9.566;2024-02-21T05:13:37;13.00;;;5.05;;
31680;SDS011;18281;51.364;9.566;2024-02-21T05:16:02;14.73;;;5.05;;
31680;SDS011;18281;51.364;9.566;2024-02-21T05:18:28;16.98;;;5.53;;
31680;SDS011;18281;51.364;9.566;2024-02-21T05:20:53;13.75;;;5.20;;
31680;SDS011;18281;51.364;9.566;2024-02-21T05:23:19;17.73;;;5.93;;
31680;SDS011;18281;51.364;9.566;2024-02-21T05:25:44;15.15;;;5.47;;
31680;SDS011;18281;51.364;9.566;2024-02-21T05:28:09;13.95;;;5.50;;
31680;SDS011;18281;51.364;9.566;2024-02-21T05:30:35;14.52;;;5.07;;
31680;SDS011;18281;51.364;9.566;2024-02-21T05:33:06;12.55;;;5.00;;
31680;SDS011;18281;51.364;9.566;2024-02-21T05:35:32;14.55;;;5.22;;
31680;SDS011;18281;51.364;9.566;2024-02-21T05:37:58;20.48;;;5.05;;
31680;SDS011;18281;51.364;9.566;2024-02-21T05:40:24;13.55;;;5.03;;
31680;SDS011;18281;51.364;9.566;2024-02-21T05:42:50;13.88;;;5.18;;
31680;SDS011;18281;51.364;9.566;2024-02-21T05:45:16;16.40;;;5.03;;
31680;SDS011;18281;51.364;9.566;2024-02-21T05:47:42;13.68;;;5.07;;
31680;SDS011;18281;51.364;9.566;2024-02-21T05:50:08;17.02;;;5.30;;
31680;SDS011;18281;51.364;9.566;2024-02-21T05:52:34;14.98;;;5.10;;
31680;SDS011;18281;51.364;9.566;2024-02-21T05:54:59;13.57;;;5.53;;
31680;SDS011;18281;51.364;9.566;2024-02-21T05:57:24;15.52;;;6.65;;
31680;SDS011;18281;51.364;9.566;2024-02-21T05:59:50;18.35;;;5.30;;
31680;SDS011;18281;51.364;9.566;2024-02-21T06:02:15;13.52;;;5.07;;
31680;SDS011;18281;51.364;9.566;2024-02-21T06:04:41;12.93;;;3.95;;
31680;SDS011;18281;51.364;9.566;2024-02-21T06:07:07;12.32;;;4.13;;
31680;SDS011;18281;51.364;9.566;2024-02-21T06:09:33;12.90;;;4.15;;
31680;SDS011;18281;51.364;9.566;2024-02-21T06:11:58;11.07;;;4.35;;
31680;SDS011;18281;51.364;9.566;2024-02-21T06:14:24;11.25;;;3.85;;
31680;SDS011;18281;51.364;9.566;2024-02-21T06:16:49;12.07;;;4.45;;
31680;SDS011;18281;51.364;9.566;2024-02-21T06:19:14;15.05;;;5.20;;
31680;SDS011;18281;51.364;9.566;2024-02-21T06:21:40;15.77;;;5.22;;
31680;SDS011;18281;51.364;9.566;2024-02-21T06:24:05;15.10;;;6.43;;
31680;SDS011;18281;51.364;9.566;2024-02-21T06:26:30;17.45;;;7.78;;
31680;SDS011;18281;51.364;9.566;2024-02-21T06:28:56;15.00;;;6.75;;
31680;SDS011;18281;51.364;9.566;2024-02-21T06:31:22;24.67;;;7.38;;
31680;SDS011;18281;51.364;9.566;2024-02-21T06:33:47;16.67;;;6.97;;
31680;SDS011;18281;51.364;9.566;2024-02-21T06:36:12;14.90;;;5.78;;
31680;SDS011;18281;51.364;9.566;2024-02-21T06:38:38;15.77;;;6.63;;
31680;SDS011;18281;51.364;9.566;2024-02-21T06:41:03;16.83;;;6.30;;
31680;SDS011;18281;51.364;9.566;2024-02-21T06:43:29;18.63;;;6.07;;
31680;SDS011;18281;51.364;9.566;2024-02-21T06:45:55;11.95;;;5.13;;
31680;SDS011;18281;51.364;9.566;2024-02-21T06:48:21;13.80;;;4.63;;
31680;SDS011;18281;51.364;9.566;2024-02-21T06:50:47;16.38;;;5.40;;
31680;SDS011;18281;51.364;9.566;2024-02-21T06:53:13;12.57;;;4.60;;
31680;SDS011;18281;51.364;9.566;2024-02-21T06:55:38;10.73;;;4.55;;
31680;SDS011;18281;51.364;9.566;2024-02-21T06:58:04;12.70;;;4.70;;
31680;SDS011;18281;51.364;9.566;2024-02-21T07:00:29;18.77;;;5.80;;
31680;SDS011;18281;51.364;9.566;2024-02-21T07:02:55;16.30;;;5.25;;
31680;SDS011;18281;51.364;9.566;2024-02-21T07:05:20;14.50;;;4.80;;
31680;SDS011;18281;51.364;9.566;2024-02-21T07:07:46;14.75;;;4.88;;
31680;SDS011;18281;51.364;9.566;2024-02-21T07:10:11;12.88;;;4.40;;
31680;SDS011;18281;51.364;9.566;2024-02-21T07:12:37;11.35;;;4.90;;
31680;SDS011;18281;51.364;9.566;2024-02-21T07:15:07;9.93;;;4.20;;
31680;SDS011;18281;51.364;9.566;2024-02-21T07:17:32;10.25;;;4.53;;
31680;SDS011;18281;51.364;9.566;2024-02-21T07:19:58;14.00;;;4.40;;
31680;SDS011;18281;51.364;9.566;2024-02-21T07:22:24;14.27;;;4.50;;
31680;SDS011;18281;51.364;9.566;2024-02-21T07:24:49;14.43;;;4.00;;
31680;SDS011;18281;51.364;9.566;2024-02-21T07:27:15;11.32;;;4.57;;
31680;SDS011;18281;51.364;9.566;2024-02-21T07:29:40;15.90;;;5.28;;
31680;SDS011;18281;51.364;9.566;2024-02-21T07:32:06;16.38;;;4.22;;
31680;SDS011;18281;51.364;9.566;2024-02-21T07:34:31;13.25;;;5.07;;
31680;SDS011;18281;51.364;9.566;2024-02-21T07:36:57;13.77;;;4.30;;
31680;SDS011;18281;51.364;9.566;2024-02-21T07:39:22;10.68;;;4.40;;
31680;SDS011;18281;51.364;9.566;2024-02-21T07:41:54;18.33;;;4.50;;
31680;SDS011;18281;51.364;9.566;2024-02-21T07:44:19;13.17;;;4.20;;
31680;SDS011;18281;51.364;9.566;2024-02-21T07:46:44;16.00;;;5.00;;
31680;SDS011;18281;51.364;9.566;2024-02-21T07:49:10;11.77;;;4.25;;
31680;SDS011;18281;51.364;9.566;2024-02-21T07:51:35;9.27;;;4.03;;
31680;SDS011;18281;51.364;9.566;2024-02-21T07:54:01;12.88;;;5.35;;
31680;SDS011;18281;51.364;9.566;2024-02-21T07:56:27;12.05;;;4.85;;
31680;SDS011;18281;51.364;9.566;2024-02-21T07:58:53;15.55;;;4.88;;
31680;SDS011;18281;51.364;9.566;2024-02-21T08:01:19;13.48;;;4.72;;
31680;SDS011;18281;51.364;9.566;2024-02-21T08:03:47;12.55;;;5.15;;
31680;SDS011;18281;51.364;9.566;2024-02-21T08:06:12;15.27;;;4.60;;
31680;SDS011;18281;51.364;9.566;2024-02-21T08:08:39;18.40;;;6.35;;
31680;SDS011;18281;51.364;9.566;2024-02-21T08:11:04;15.05;;;5.40;;
31680;SDS011;18281;51.364;9.566;2024-02-21T08:13:32;13.25;;;6.03;;
31680;SDS011;18281;51.364;9.566;2024-02-21T08:15:57;14.80;;;5.95;;
31680;SDS011;18281;51.364;9.566;2024-02-21T08:18:23;10.77;;;4.47;;
31680;SDS011;18281;51.364;9.566;2024-02-21T08:20:48;11.18;;;4.63;;
31680;SDS011;18281;51.364;9.566;2024-02-21T08:23:18;15.10;;;5.20;;
31680;SDS011;18281;51.364;9.566;2024-02-21T08:25:43;8.70;;;4.30;;
31680;SDS011;18281;51.364;9.566;2024-02-21T08:28:09;10.57;;;4.43;;
31680;SDS011;18281;51.364;9.566;2024-02-21T08:30:34;9.23;;;4.22;;
31680;SDS011;18281;51.364;9.566;2024-02-21T08:33:00;8.50;;;3.97;;
31680;SDS011;18281;51.364;9.566;2024-02-21T08:35:25;9.30;;;3.92;;
31680;SDS011;18281;51.364;9.566;2024-02-21T08:37:50;10.68;;;4.47;;
31680;SDS011;18281;51.364;9.566;2024-02-21T08:40:16;11.02;;;4.25;;
31680;SDS011;18281;51.364;9.566;2024-02-21T08:42:46;11.50;;;4.50;;
31680;SDS011;18281;51.364;9.566;2024-02-21T08:45:12;17.50;;;4.32;;
31680;SDS011;18281;51.364;9.566;2024-02-21T08:47:40;15.65;;;4.00;;
31680;SDS011;18281;51.364;9.566;2024-02-21T08:50:06;11.43;;;4.05;;
31680;SDS011;18281;51.364;9.566;2024-02-21T08:52:35;10.20;;;4.70;;
31680;SDS011;18281;51.364;9.566;2024-02-21T08:55:00;13.57;;;4.43;;
31680;SDS011;18281;51.364;9.566;2024-02-21T08:57:25;11.55;;;3.80;;
31680;SDS011;18281;51.364;9.566;2024-02-21T08:59:53;9.00;;;3.58;;
31680;SDS011;18281;51.364;9.566;2024-02-21T09:02:18;12.80;;;3.78;;
31680;SDS011;18281;51.364;9.566;2024-02-21T09:04:44;12.70;;;5.20;;
31680;SDS011;18281;51.364;9.566;2024-02-21T09:07:12;11.27;;;3.70;;
31680;SDS011;18281;51.364;9.566;2024-02-21T09:09:37;10.77;;;4.10;;
31680;SDS011;18281;51.364;9.566;2024-02-21T09:12:05;8.32;;;3.70;;
31680;SDS011;18281;51.364;9.566;2024-02-21T09:14:32;8.45;;;3.97;;
31680;SDS011;18281;51.364;9.566;2024-02-21T09:16:58;12.90;;;4.50;;
31680;SDS011;18281;51.364;9.566;2024-02-21T09:19:23;10.40;;;3.63;;
31680;SDS011;18281;51.364;9.566;2024-02-21T09:21:49;6.60;;;3.58;;
31680;SDS011;18281;51.364;9.566;2024-02-21T09:24:15;11.88;;;3.53;;
31680;SDS011;18281;51.364;9.566;2024-02-21T09:26:40;7.60;;;3.47;;
31680;SDS011;18281;51.364;9.566;2024-02-21T09:29:05;8.57;;;3.15;;
31680;SDS011;18281;51.364;9.566;2024-02-21T09:31:31;12.80;;;3.08;;
31680;SDS011;18281;51.364;9.566;2024-02-21T09:33:56;12.30;;;4.10;;
31680;SDS011;18281;51.364;9.566;2024-02-21T09:36:22;8.13;;;3.25;;
31680;SDS011;18281;51.364;9.566;2024-02-21T09:38:47;12.98;;;3.40;;
31680;SDS011;18281;51.364;9.566;2024-02-21T09:41:16;9.48;;;3.13;;
31680;SDS011;18281;51.364;9.566;2024-02-21T09:43:54;11.57;;;3.47;;
31680;SDS011;18281;51.364;9.566;2024-02-21T09:46:21;11.85;;;3.20;;
31680;SDS011;18281;51.364;9.566;2024-02-21T09:48:58;7.07;;;3.70;;
31680;SDS011;18281;51.364;9.566;2024-02-21T09:51:36;7.85;;;3.10;;
31680;SDS011;18281;51.364;9.566;2024-02-21T09:54:03;10.98;;;3.85;;
31680;SDS011;18281;51.364;9.566;2024-02-21T09:56:29;8.52;;;3.10;;
31680;SDS011;18281;51.364;9.566;2024-02-21T09:58:55;11.05;;;3.80;;
31680;SDS011;18281;51.364;9.566;2024-02-21T10:01:22;16.65;;;4.95;;
31680;SDS011;18281;51.364;9.566;2024-02-21T10:03:47;11.95;;;4.10;;
31680;SDS011;18281;51.364;9.566;2024-02-21T10:06:13;8.43;;;4.13;;
31680;SDS011;18281;51.364;9.566;2024-02-21T10:08:38;8.88;;;3.88;;
31680;SDS011;18281;51.364;9.566;2024-02-21T10:11:03;8.48;;;3.80;;
31680;SDS011;18281;51.364;9.566;2024-02-21T10:13:29;5.78;;;3.10;;
31680;SDS011;18281;51.364;9.566;2024-02-21T10:16:04;9.82;;;3.50;;
31680;SDS011;18281;51.364;9.566;2024-02-21T10:18:30;10.48;;;3.85;;
31680;SDS011;18281;51.364;9.566;2024-02-21T10:21:06;13.25;;;3.65;;
31680;SDS011;18281;51.364;9.566;2024-02-21T10:23:42;11.02;;;3.50;;
31680;SDS011;18281;51.364;9.566;2024-02-21T10:26:07;6.38;;;2.90;;
31680;SDS011;18281;51.364;9.566;2024-02-21T10:28:33;11.85;;;2.80;;
31680;SDS011;18281;51.364;9.566;2024-02-21T10:30:58;9.73;;;3.40;;
31680;SDS011;18281;51.364;9.566;2024-02-21T10:33:24;8.98;;;3.25;;
31680;SDS011;18281;51.364;9.566;2024-02-21T10:35:50;14.25;;;3.10;;
31680;SDS011;18281;51.364;9.566;2024-02-21T10:38:16;10.20;;;3.33;;
31680;SDS011;18281;51.364;9.566;2024-02-21T10:40:41;9.32;;;3.00;;
31680;SDS011;18281;51.364;9.566;2024-02-21T10:43:09;12.13;;;3.72;;
31680;SDS011;18281;51.364;9.566;2024-02-21T10:45:37;9.75;;;3.05;;
31680;SDS011;18281;51.364;9.566;2024-02-21T10:48:11;9.85;;;3.30;;
31680;SDS011;18281;51.364;9.566;2024-02-21T10:51:26;11.48;;;2.95;;
31680;SDS011;18281;51.364;9.566;2024-02-21T10:56:15;8.70;;;3.53;;
31680;SDS011;18281;51.364;9.566;2024-02-21T10:58:46;10.05;;;3.38;;
31680;SDS011;18281;51.364;9.566;2024-02-21T11:01:13;10.48;;;4.82;;
31680;SDS011;18281;51.364;9.566;2024-02-21T11:03:41;22.92;;;7.75;;
31680;SDS011;18281;51.364;9.566;2024-02-21T11:06:09;22.70;;;8.05;;
31680;SDS011;18281;51.364;9.566;2024-02-21T11:08:36;13.73;;;5.68;;
31680;SDS011;18281;51.364;9.566;2024-02-21T11:11:02;11.93;;;5.03;;
31680;SDS011;18281;51.364;9.566;2024-02-21T11:13:30;12.57;;;4.25;;
31680;SDS011;18281;51.364;9.566;2024-02-21T11:16:22;12.73;;;4.38;;
31680;SDS011;18281;51.364;9.566;2024-02-21T11:18:48;11.18;;;3.00;;
31680;SDS011;18281;51.364;9.566;2024-02-21T11:21:13;5.85;;;2.72;;
31680;SDS011;18281;51.364;9.566;2024-02-21T11:23:39;5.63;;;2.65;;
31680;SDS011;18281;51.364;9.566;2024-02-21T11:26:05;11.27;;;3.50;;
31680;SDS011;18281;51.364;9.566;2024-02-21T11:28:31;13.25;;;3.20;;
31680;SDS011;18281;51.364;9.566;2024-02-21T11:31:07;9.27;;;2.88;;
31680;SDS011;18281;51.364;9.566;2024-02-21T11:33:34;14.75;;;3.80;;
31680;SDS011;18281;51.364;9.566;2024-02-21T11:36:01;7.65;;;2.72;;
31680;SDS011;18281;51.364;9.566;2024-02-21T11:38:26;11.82;;;2.83;;
31680;SDS011;18281;51.364;9.566;2024-02-21T11:40:52;9.02;;;2.90;;
31680;SDS011;18281;51.364;9.566;2024-02-21T11:43:17;8.25;;;2.85;;
31680;SDS011;18281;51.364;9.566;2024-02-21T11:45:43;11.63;;;3.03;;
31680;SDS011;18281;51.364;9.566;2024-02-21T11:48:08;8.27;;;2.95;;
31680;SDS011;18281;51.364;9.566;2024-02-21T11:50:34;8.98;;;3.53;;
31680;SDS011;18281;51.364;9.566;2024-02-21T11:53:01;14.05;;;3.20;;
31680;SDS011;18281;51.364;9.566;2024-02-21T11:55:26;12.13;;;3.00;;
31680;SDS011;18281;51.364;9.566;2024-02-21T11:57:51;12.98;;;3.63;;
31680;SDS011;18281;51.364;9.566;2024-02-21T12:00:19;7.60;;;2.38;;
31680;SDS011;18281;51.364;9.566;2024-02-21T12:02:45;9.95;;;3.75;;
31680;SDS011;18281;51.364;9.566;2024-02-21T12:05:11;10.35;;;2.53;;
31680;SDS011;18281;51.364;9.566;2024-02-21T12:07:37;7.90;;;2.17;;
31680;SDS011;18281;51.364;9.566;2024-02-21T12:10:09;12.35;;;2.83;;
31680;SDS011;18281;51.364;9.566;2024-02-21T12:12:35;7.30;;;1.80;;
31680;SDS011;18281;51.364;9.566;2024-02-21T12:15:03;7.78;;;2.47;;
31680;SDS011;18281;51.364;9.566;2024-02-21T12:17:29;8.23;;;2.30;;
31680;SDS011;18281;51.364;9.566;2024-02-21T12:20:01;14.13;;;2.97;;
31680;SDS011;18281;51.364;9.566;2024-02-21T12:22:31;11.40;;;3.17;;
31680;SDS011;18281;51.364;9.566;2024-02-21T12:24:57;7.07;;;2.78;;
31680;SDS011;18281;51.364;9.566;2024-02-21T12:27:23;7.78;;;2.50;;
31680;SDS011;18281;51.364;9.566;2024-02-21T12:29:51;8.40;;;2.50;;
31680;SDS011;18281;51.364;9.566;2024-02-21T12:32:16;12.73;;;3.50;;
31680;SDS011;18281;51.364;9.566;2024-02-21T12:34:42;7.47;;;2.85;;
31680;SDS011;18281;51.364;9.566;2024-02-21T12:37:07;12.48;;;3.15;;
31680;SDS011;18281;51.364;9.566;2024-02-21T12:39:32;9.88;;;3.17;;
31680;SDS011;18281;51.364;9.566;2024-02-21T12:41:58;11.77;;;2.60;;
31680;SDS011;18281;51.364;9.566;2024-02-21T12:44:23;11.05;;;3.20;;
31680;SDS011;18281;51.364;9.566;2024-02-21T12:46:49;10.30;;;3.03;;
31680;SDS011;18281;51.364;9.566;2024-02-21T12:49:17;7.65;;;2.80;;
31680;SDS011;18281;51.364;9.566;2024-02-21T12:51:43;10.65;;;3.13;;
31680;SDS011;18281;51.364;9.566;2024-02-21T12:54:08;9.30;;;3.03;;
31680;SDS011;18281;51.364;9.566;2024-02-21T12:56:36;12.60;;;3.53;;
31680;SDS011;18281;51.364;9.566;2024-02-21T12:59:01;13.85;;;3.30;;
31680;SDS011;18281;51.364;9.566;2024-02-21T13:01:27;11.75;;;3.10;;
31680;SDS011;18281;51.364;9.566;2024-02-21T13:03:53;7.40;;;3.10;;
31680;SDS011;18281;51.364;9.566;2024-02-21T13:06:19;10.23;;;3.60;;
31680;SDS011;18281;51.364;9.566;2024-02-21T13:08:44;6.97;;;2.50;;
31680;SDS011;18281;51.364;9.566;2024-02-21T13:11:12;12.95;;;3.13;;
31680;SDS011;18281;51.364;9.566;2024-02-21T13:13:38;9.43;;;2.83;;
31680;SDS011;18281;51.364;9.566;2024-02-21T13:16:03;11.77;;;3.33;;
31680;SDS011;18281;51.364;9.566;2024-02-21T13:18:29;10.48;;;2.90;;
31680;SDS011;18281;51.364;9.566;2024-02-21T13:20:54;7.22;;;3.08;;
31680;SDS011;18281;51.364;9.566;2024-02-21T13:23:20;7.85;;;2.50;;
31680;SDS011;18281;51.364;9.566;2024-02-21T13:25:48;7.45;;;2.55;;
31680;SDS011;18281;51.364;9.566;2024-02-21T13:28:14;10.73;;;3.25;;
31680;SDS011;18281;51.364;9.566;2024-02-21T13:30:41;12.70;;;3.10;;
31680;SDS011;18281;51.364;9.566;2024-02-21T13:33:06;14.13;;;3.47;;
31680;SDS011;18281;51.364;9.566;2024-02-21T13:35:32;11.63;;;3.30;;
31680;SDS011;18281;51.364;9.566;2024-02-21T13:37:57;11.88;;;3.15;;
31680;SDS011;18281;51.364;9.566;2024-02-21T13:40:23;11.55;;;3.92;;
31680;SDS011;18281;51.364;9.566;2024-02-21T13:42:50;5.90;;;3.10;;
31680;SDS011;18281;51.364;9.566;2024-02-21T13:45:16;7.60;;;3.72;;
31680;SDS011;18281;51.364;9.566;2024-02-21T13:47:42;9.57;;;3.70;;
31680;SDS011;18281;51.364;9.566;2024-02-21T13:50:07;7.72;;;3.30;;
31680;SDS011;18281;51.364;9.566;2024-02-21T13:52:39;8.02;;;3.33;;
31680;SDS011;18281;51.364;9.566;2024-02-21T13:55:05;8.90;;;3.53;;
31680;SDS011;18281;51.364;9.566;2024-02-21T13:57:33;9.57;;;3.92;;
31680;SDS011;18281;51.364;9.566;2024-02-21T13:59:59;15.90;;;3.83;;
31680;SDS011;18281;51.364;9.566;2024-02-21T14:02:25;11.57;;;3.72;;
31680;SDS011;18281;51.364;9.566;2024-02-21T14:04:50;8.60;;;4.07;;
31680;SDS011;18281;51.364;9.566;2024-02-21T14:07:16;8.60;;;3.72;;
31680;SDS011;18281;51.364;9.566;2024-02-21T14:09:42;10.23;;;3.85;;
31680;SDS011;18281;51.364;9.566;2024-02-21T14:12:08;5.97;;;3.22;;
31680;SDS011;18281;51.364;9.566;2024-02-21T14:14:34;8.48;;;3.70;;
31680;SDS011;18281;51.364;9.566;2024-02-21T14:17:01;10.95;;;2.97;;
31680;SDS011;18281;51.364;9.566;2024-02-21T14:19:27;9.82;;;3.67;;
31680;SDS011;18281;51.364;9.566;2024-02-21T14:21:55;7.30;;;3.83;;
31680;SDS011;18281;51.364;9.566;2024-02-21T14:24:23;10.00;;;3.92;;
31680;SDS011;18281;51.364;9.566;2024-02-21T14:26:52;10.88;;;4.18;;
31680;SDS011;18281;51.364;9.566;2024-02-21T14:29:24;10.85;;;3.90;;
31680;SDS011;18281;51.364;9.566;2024-02-21T14:31:50;8.73;;;4.05;;
31680;SDS011;18281;51.364;9.566;2024-02-21T14:34:15;8.52;;;4.82;;
31680;SDS011;18281;51.364;9.566;2024-02-21T14:36:41;14.98;;;4.78;;
31680;SDS011;18281;51.364;9.566;2024-02-21T14:39:06;10.50;;;4.80;;